createdAt,value
2024-01-26T00:01:51.057Z,102225.66
2024-01-26T00:03:53.675Z,102226.41
2024-01-26T00:05:56.039Z,102221.91
2024-01-26T00:07:58.021Z,102226.41
2024-01-26T00:10:00.659Z,102226.53
2024-01-26T00:12:02.980Z,102214.59
2024-01-26T00:14:05.519Z,102235.84
2024-01-26T00:16:07.211Z,102234.78
2024-01-26T00:18:09.111Z,102239.06
2024-01-26T00:20:12.823Z,102236.63
2024-01-26T00:22:14.978Z,102230.28
2024-01-26T00:24:18.947Z,102224.91
2024-01-26T00:26:22.490Z,102212.56
2024-01-26T00:28:25.000Z,102209.69
2024-01-26T00:30:27.086Z,102205.94
2024-01-26T00:32:29.363Z,102146.25
2024-01-26T00:34:31.179Z,102196.06
2024-01-26T00:36:36.339Z,102188.44
2024-01-26T00:38:38.389Z,102196.38
2024-01-26T00:40:40.209Z,102206.16
2024-01-26T00:42:42.358Z,102214.28
2024-01-26T00:44:44.489Z,102225.22
2024-01-26T00:46:49.917Z,102223.41
2024-01-26T00:48:51.814Z,102219.75
2024-01-26T00:50:55.621Z,102210.88
2024-01-26T00:52:57.541Z,102210.00
2024-01-26T00:55:00.062Z,102200.78
2024-01-26T00:57:02.703Z,102197.97
2024-01-26T00:59:04.313Z,102188.22
2024-01-26T01:01:06.359Z,102193.59
2024-01-26T01:03:08.237Z,102190.13
2024-01-26T01:05:10.928Z,102191.97
2024-01-26T01:07:12.473Z,102179.53
2024-01-26T01:09:14.187Z,102172.34
2024-01-26T01:11:16.122Z,102168.69
2024-01-26T01:13:17.709Z,102169.56
2024-01-26T01:15:19.585Z,102166.22
2024-01-26T01:17:21.140Z,102170.00
2024-01-26T01:19:22.835Z,102184.91
2024-01-26T01:21:24.418Z,102188.63
2024-01-26T01:23:26.940Z,102192.19
2024-01-26T01:25:28.631Z,102168.91
2024-01-26T01:27:32.431Z,102166.34
2024-01-26T01:29:34.501Z,102171.78
2024-01-26T01:31:36.171Z,102177.38
2024-01-26T01:33:37.788Z,102178.34
2024-01-26T01:35:39.478Z,102173.19
2024-01-26T01:37:41.143Z,102181.78
2024-01-26T01:39:42.747Z,102180.94
2024-01-26T01:41:50.254Z,102185.31
2024-01-26T01:43:55.641Z,102189.19
2024-01-26T01:45:57.299Z,102173.09
2024-01-26T01:47:59.065Z,102182.63
2024-01-26T01:50:00.910Z,102184.03
2024-01-26T01:52:04.961Z,102187.75
2024-01-26T01:54:07.591Z,102188.81
2024-01-26T01:56:11.752Z,102203.44
2024-01-26T01:58:14.636Z,102198.06
2024-01-26T02:00:19.358Z,102176.19
2024-01-26T02:02:24.967Z,102181.88
2024-01-26T02:04:27.141Z,102168.59
2024-01-26T02:06:28.815Z,102171.25
2024-01-26T02:08:30.454Z,102167.09
2024-01-26T02:10:33.540Z,102175.22
2024-01-26T02:12:35.594Z,102173.28
2024-01-26T02:14:37.296Z,102168.88
2024-01-26T02:16:38.849Z,102172.44
2024-01-26T02:18:40.641Z,102163.50
2024-01-26T02:20:47.806Z,102164.50
2024-01-26T02:22:54.171Z,102156.44
2024-01-26T02:24:55.879Z,102155.59
2024-01-26T02:26:57.485Z,102147.75
2024-01-26T02:28:59.118Z,102146.06
2024-01-26T02:31:00.716Z,102147.75
2024-01-26T02:33:02.444Z,102149.66
2024-01-26T02:35:04.708Z,102150.44
2024-01-26T02:37:06.265Z,102146.91
2024-01-26T02:39:08.049Z,102150.22
2024-01-26T02:41:09.628Z,102152.78
2024-01-26T02:43:11.321Z,102146.91
2024-01-26T02:45:13.172Z,102147.00
2024-01-26T02:47:15.018Z,102144.44
2024-01-26T02:49:17.416Z,102146.13
2024-01-26T02:51:19.101Z,102143.47
2024-01-26T02:53:20.657Z,102148.19
2024-01-26T02:55:22.334Z,102132.09
2024-01-26T02:57:24.215Z,102128.34
2024-01-26T02:59:25.885Z,102119.94
2024-01-26T03:01:27.681Z,102100.31
2024-01-26T03:03:29.406Z,102115.47
2024-01-26T03:05:31.140Z,102111.72
2024-01-26T03:07:32.839Z,102130.47
2024-01-26T03:09:34.543Z,102124.25
2024-01-26T03:11:40.999Z,102131.44
2024-01-26T03:13:42.935Z,102137.66
2024-01-26T03:15:50.771Z,102139.28
2024-01-26T03:17:52.537Z,102141.09
2024-01-26T03:19:54.256Z,102140.03
2024-01-26T03:21:55.862Z,102127.38
2024-01-26T03:23:57.937Z,102132.72
2024-01-26T03:25:59.612Z,102127.59
2024-01-26T03:28:01.277Z,102121.06
2024-01-26T03:30:04.921Z,102116.13
2024-01-26T03:32:07.134Z,102115.69
2024-01-26T03:34:08.975Z,102122.97
2024-01-26T03:36:13.948Z,102127.50
2024-01-26T03:38:16.732Z,102115.78
2024-01-26T03:40:18.453Z,102126.00
2024-01-26T03:42:20.325Z,102119.88
2024-01-26T03:44:21.948Z,102113.75
2024-01-26T03:46:23.990Z,102107.44
2024-01-26T03:48:25.703Z,102103.13
2024-01-26T03:50:27.556Z,102099.47
2024-01-26T03:52:29.255Z,102104.00
2024-01-26T03:54:31.007Z,102108.38
2024-01-26T03:56:32.668Z,102101.97
2024-01-26T03:58:34.424Z,102115.47
2024-01-26T04:00:36.644Z,102106.13
2024-01-26T04:02:38.593Z,102120.50
2024-01-26T04:04:41.238Z,102115.13
2024-01-26T04:06:42.927Z,102115.69
2024-01-26T04:08:45.159Z,102110.41
2024-01-26T04:10:46.779Z,102107.72
2024-01-26T04:12:48.424Z,102098.41
2024-01-26T04:14:50.599Z,102091.34
2024-01-26T04:16:52.251Z,102088.00
2024-01-26T04:18:54.087Z,102093.06
2024-01-26T04:20:55.753Z,102092.00
2024-01-26T04:22:57.469Z,102104.75
2024-01-26T04:24:59.076Z,102110.00
2024-01-26T04:27:01.805Z,102102.06
2024-01-26T04:29:03.426Z,102104.09
2024-01-26T04:31:05.704Z,102106.03
2024-01-26T04:33:07.545Z,102116.63
2024-01-26T04:35:11.309Z,102112.38
2024-01-26T04:37:12.938Z,102106.44
2024-01-26T04:39:15.437Z,102100.44
2024-01-26T04:41:17.046Z,102111.16
2024-01-26T04:43:19.797Z,102104.31
2024-01-26T04:45:21.443Z,102102.25
2024-01-26T04:47:23.136Z,102115.34
2024-01-26T04:49:24.888Z,102115.53
2024-01-26T04:51:26.578Z,102106.84
2024-01-26T04:53:28.177Z,102120.59
2024-01-26T04:55:32.297Z,102111.66
2024-01-26T04:57:33.891Z,102125.06
2024-01-26T04:59:35.729Z,102116.72
2024-01-26T05:01:39.362Z,102119.41
2024-01-26T05:03:40.963Z,102125.81
2024-01-26T05:05:42.811Z,102122.16
2024-01-26T05:07:44.496Z,102127.53
2024-01-26T05:09:48.585Z,102109.88
2024-01-26T05:11:50.495Z,102126.38
2024-01-26T05:13:52.574Z,102108.56
2024-01-26T05:15:54.186Z,102105.88
2024-01-26T05:17:55.924Z,102102.56
2024-01-26T05:19:57.668Z,102095.28
2024-01-26T05:21:59.376Z,102084.34
2024-01-26T05:24:01.103Z,102087.13
2024-01-26T05:26:02.804Z,102080.19
2024-01-26T05:28:04.740Z,102079.41
2024-01-26T05:30:07.090Z,102080.47
2024-01-26T05:32:08.816Z,102081.97
2024-01-26T05:34:10.567Z,102080.47
2024-01-26T05:36:12.489Z,102084.78
2024-01-26T05:38:14.137Z,102084.84
2024-01-26T05:40:16.115Z,102090.34
2024-01-26T05:42:17.793Z,102101.06
2024-01-26T05:44:20.372Z,102105.56
2024-01-26T05:46:21.957Z,102108.78
2024-01-26T05:48:23.587Z,102115.03
2024-01-26T05:50:25.233Z,102117.56
2024-01-26T05:52:26.829Z,102108.88
2024-01-26T05:54:28.502Z,102102.69
2024-01-26T05:56:30.203Z,102118.44
2024-01-26T05:58:32.876Z,102111.44
2024-01-26T06:00:34.597Z,102122.72
2024-01-26T06:02:36.352Z,102117.50
2024-01-26T06:04:38.030Z,102116.41
2024-01-26T06:06:39.697Z,102118.13
2024-01-26T06:08:45.413Z,102106.84
2024-01-26T06:10:47.450Z,102121.97
2024-01-26T06:12:49.186Z,102120.38
2024-01-26T06:14:50.846Z,102129.16
2024-01-26T06:16:52.509Z,102131.09
2024-01-26T06:18:55.064Z,102133.56
2024-01-26T06:20:56.823Z,102134.31
2024-01-26T06:22:59.243Z,102134.31
2024-01-26T06:25:00.958Z,102131.53
2024-01-26T06:27:02.719Z,102108.56
2024-01-26T06:29:05.054Z,102128.22
2024-01-26T06:31:06.677Z,102120.16
2024-01-26T06:33:08.349Z,102107.22
2024-01-26T06:35:10.425Z,102139.88
2024-01-26T06:37:12.000Z,102139.88
2024-01-26T06:39:13.856Z,102135.47
2024-01-26T06:41:15.502Z,102131.84
2024-01-26T06:43:17.689Z,102145.22
2024-01-26T06:45:19.808Z,102141.50
2024-01-26T06:47:21.624Z,102140.44
2024-01-26T06:49:23.543Z,102137.84
2024-01-26T06:51:25.397Z,102143.97
2024-01-26T06:53:27.108Z,102150.19
2024-01-26T06:55:28.686Z,102147.63
2024-01-26T06:57:30.418Z,102153.72
2024-01-26T06:59:33.472Z,102158.44
2024-01-26T07:01:35.138Z,102162.81
2024-01-26T07:03:37.060Z,102148.47
2024-01-26T07:05:39.044Z,102152.00
2024-01-26T07:07:41.072Z,102156.72
2024-01-26T07:09:42.746Z,102152.09
2024-01-26T07:11:44.369Z,102154.13
2024-01-26T07:13:46.237Z,102162.94
2024-01-26T07:15:47.877Z,102164.63
2024-01-26T07:17:50.565Z,102159.06
2024-01-26T07:19:52.291Z,102160.03
2024-01-26T07:21:53.984Z,102163.69
2024-01-26T07:23:55.592Z,102170.84
2024-01-26T07:25:57.333Z,102161.88
2024-01-26T07:27:59.059Z,102178.91
2024-01-26T07:30:00.845Z,102183.31
2024-01-26T07:32:02.747Z,102176.91
2024-01-26T07:34:04.619Z,102171.63
2024-01-26T07:36:06.682Z,102186.53
2024-01-26T07:38:09.140Z,102191.03
2024-01-26T07:40:11.226Z,102186.53
2024-01-26T07:42:13.065Z,102185.59
2024-01-26T07:44:14.681Z,102196.09
2024-01-26T07:46:16.332Z,102196.84
2024-01-26T07:48:18.234Z,102196.00
2024-01-26T07:50:20.325Z,102201.25
2024-01-26T07:52:23.259Z,102196.97
2024-01-26T07:54:24.925Z,102198.00
2024-01-26T07:56:26.487Z,102193.72
2024-01-26T07:58:28.138Z,102214.09
2024-01-26T08:00:30.027Z,102210.56
2024-01-26T08:02:32.148Z,102213.97
2024-01-26T08:04:34.133Z,102209.72
2024-01-26T08:06:36.007Z,102211.31
2024-01-26T08:08:37.843Z,102214.97
2024-01-26T08:10:39.937Z,102227.38
2024-01-26T08:12:45.339Z,102225.47
2024-01-26T08:14:48.407Z,102222.13
2024-01-26T08:16:50.066Z,102236.31
2024-01-26T08:18:53.895Z,102238.09
2024-01-26T08:20:55.987Z,102241.03
2024-01-26T08:22:57.703Z,102240.13
2024-01-26T08:24:59.687Z,102239.41
2024-01-26T08:27:01.745Z,102238.63
2024-01-26T08:29:03.561Z,102258.03
2024-01-26T08:31:06.600Z,102248.38
2024-01-26T08:33:08.296Z,102266.09
2024-01-26T08:35:11.353Z,102258.03
2024-01-26T08:37:13.783Z,102265.22
2024-01-26T08:39:15.692Z,102270.19
2024-01-26T08:41:18.167Z,102265.59
2024-01-26T08:43:19.745Z,102268.38
2024-01-26T08:45:21.501Z,102267.81
2024-01-26T08:47:23.189Z,102277.47
2024-01-26T08:49:24.877Z,102275.63
2024-01-26T08:51:26.640Z,102284.38
2024-01-26T08:53:28.209Z,102291.72
2024-01-26T08:55:29.739Z,102293.47
2024-01-26T08:57:31.308Z,102300.53
2024-01-26T08:59:33.387Z,102297.09
2024-01-26T09:01:39.261Z,102281.97
2024-01-26T09:03:40.902Z,102286.94
2024-01-26T09:05:45.688Z,102292.22
2024-01-26T09:07:47.385Z,102294.66
2024-01-26T09:09:48.950Z,102301.84
2024-01-26T09:11:52.888Z,102295.81
2024-01-26T09:13:54.644Z,102300.78
2024-01-26T09:15:56.442Z,102297.34
2024-01-26T09:17:58.118Z,102299.94
2024-01-26T09:20:00.063Z,102302.69
2024-01-26T09:22:01.938Z,102304.53
2024-01-26T09:24:03.834Z,102303.47
2024-01-26T09:26:05.852Z,102297.03
2024-01-26T09:28:08.029Z,102311.44
2024-01-26T09:30:09.894Z,102321.19
2024-01-26T09:32:11.616Z,102323.66
2024-01-26T09:34:13.867Z,102327.00
2024-01-26T09:36:16.227Z,102340.59
2024-01-26T09:38:19.634Z,102341.38
2024-01-26T09:40:24.136Z,102343.41
2024-01-26T09:42:25.942Z,102345.31
2024-01-26T09:44:27.661Z,102356.31
2024-01-26T09:46:31.357Z,102354.41
2024-01-26T09:48:34.061Z,102360.53
2024-01-26T09:50:38.037Z,102350.75
2024-01-26T09:52:41.105Z,102375.78
2024-01-26T09:54:43.263Z,102387.91
2024-01-26T09:56:45.026Z,102405.06
2024-01-26T09:58:46.649Z,102404.50
2024-01-26T10:00:48.972Z,102416.94
2024-01-26T10:02:50.728Z,102425.16
2024-01-26T10:04:52.523Z,102417.44
2024-01-26T10:06:54.254Z,102427.38
2024-01-26T10:08:56.067Z,102429.13
2024-01-26T10:10:58.446Z,102428.44
2024-01-26T10:13:00.078Z,102438.22
2024-01-26T10:15:06.104Z,102434.75
2024-01-26T10:17:07.863Z,102449.69
2024-01-26T10:19:19.267Z,102453.34
2024-01-26T10:21:23.272Z,102453.53
2024-01-26T10:23:26.576Z,102451.16
2024-01-26T10:25:29.188Z,102445.00
2024-01-26T10:27:32.533Z,102448.75
2024-01-26T10:29:38.463Z,102452.78
2024-01-26T10:31:43.527Z,102471.31
2024-01-26T10:33:46.282Z,102470.56
2024-01-26T10:35:49.334Z,102479.38
2024-01-26T10:37:50.982Z,102480.06
2024-01-26T10:39:53.321Z,102484.72
2024-01-26T10:41:55.190Z,102486.06
2024-01-26T10:43:58.250Z,102485.13
2024-01-26T10:46:02.612Z,102484.16
2024-01-26T10:48:06.634Z,102489.53
2024-01-26T10:50:10.825Z,102485.13
2024-01-26T10:52:13.941Z,102498.13
2024-01-26T10:54:15.946Z,102497.19
2024-01-26T10:58:24.259Z,102510.00
2024-01-26T11:00:26.698Z,102507.34
2024-01-26T11:02:33.209Z,102517.13
2024-01-26T11:04:34.981Z,102517.88
2024-01-26T11:06:36.921Z,102522.84
2024-01-26T11:08:39.021Z,102526.47
2024-01-26T11:10:41.950Z,102536.44
2024-01-26T11:12:43.869Z,102526.94
2024-01-26T11:14:45.570Z,102540.94
2024-01-26T11:16:48.394Z,102540.25
2024-01-26T11:18:58.197Z,102537.84
2024-01-26T11:21:02.402Z,102538.91
2024-01-26T11:23:10.509Z,102547.63
2024-01-26T11:25:22.934Z,102545.22
2024-01-26T11:27:25.160Z,102554.63
2024-01-26T11:29:33.224Z,102561.69
2024-01-26T11:31:34.849Z,102564.97
2024-01-26T11:33:38.825Z,102569.34
2024-01-26T11:35:40.995Z,102572.16
2024-01-26T11:37:43.571Z,102571.97
2024-01-26T11:39:45.347Z,102561.69
2024-01-26T11:41:47.039Z,102575.88
2024-01-26T11:43:51.010Z,102565.44
2024-01-26T11:45:52.831Z,102592.25
2024-01-26T11:47:56.115Z,102595.97
2024-01-26T11:49:58.051Z,102588.66
2024-01-26T11:52:00.102Z,102593.09
2024-01-26T11:54:01.959Z,102586.00
2024-01-26T11:56:05.172Z,102586.69
2024-01-26T11:58:10.232Z,102587.75
2024-01-26T12:00:13.894Z,102584.28
2024-01-26T12:02:16.925Z,102590.50
2024-01-26T12:04:18.967Z,102602.84
2024-01-26T12:06:20.635Z,102599.59
2024-01-26T12:08:24.203Z,102614.72
2024-01-26T12:10:26.258Z,102616.06
2024-01-26T12:12:28.002Z,102625.16
2024-01-26T12:14:29.748Z,102635.13
2024-01-26T12:16:31.685Z,102630.69
2024-01-26T12:18:33.517Z,102638.56
2024-01-26T12:20:35.582Z,102640.91
2024-01-26T12:22:37.545Z,102642.97
2024-01-26T12:24:40.511Z,102640.56
2024-01-26T12:26:42.279Z,102634.19
2024-01-26T12:28:43.863Z,102644.91
2024-01-26T12:30:48.690Z,102644.41
2024-01-26T12:32:50.786Z,102629.72
2024-01-26T12:34:52.770Z,102647.94
2024-01-26T12:36:59.374Z,102649.47
2024-01-26T12:39:01.686Z,102660.28
2024-01-26T12:41:03.410Z,102663.25
2024-01-26T12:43:06.022Z,102663.09
2024-01-26T12:45:08.257Z,102662.13
2024-01-26T12:47:09.918Z,102683.44
2024-01-26T12:49:12.560Z,102671.00
2024-01-26T12:51:14.422Z,102676.66
2024-01-26T12:53:16.373Z,102676.81
2024-01-26T12:55:18.550Z,102687.44
2024-01-26T12:57:20.415Z,102675.00
2024-01-26T12:59:22.025Z,102693.81
2024-01-26T13:01:23.809Z,102681.66
2024-01-26T13:03:25.579Z,102678.19
2024-01-26T13:05:27.347Z,102688.97
2024-01-26T13:07:31.425Z,102673.19
2024-01-26T13:09:34.700Z,102677.69
2024-01-26T13:11:36.675Z,102671.28
2024-01-26T13:13:42.109Z,102673.28
2024-01-26T13:15:43.822Z,102678.53
2024-01-26T13:17:45.528Z,102680.34
2024-01-26T13:19:47.308Z,102671.00
2024-01-26T13:21:49.968Z,102664.81
2024-01-26T13:23:51.722Z,102670.94
2024-01-26T13:25:55.421Z,102670.78
2024-01-26T13:27:57.049Z,102671.63
2024-01-26T13:29:58.674Z,102661.97
2024-01-26T13:32:00.432Z,102668.28
2024-01-26T13:34:02.189Z,102674.31
2024-01-26T13:36:04.205Z,102680.00
2024-01-26T13:38:05.946Z,102686.56
2024-01-26T13:40:08.316Z,102694.41
2024-01-26T13:42:10.136Z,102689.00
2024-01-26T13:44:11.886Z,102690.88
2024-01-26T13:46:13.483Z,102695.91
2024-01-26T13:48:15.188Z,102716.28
2024-01-26T13:50:17.113Z,102719.91
2024-01-26T13:52:19.332Z,102719.03
2024-01-26T13:54:21.169Z,102723.00
2024-01-26T13:56:22.786Z,102730.78
2024-01-26T13:58:24.449Z,102723.44
2024-01-26T14:00:26.050Z,102727.69
2024-01-26T14:02:27.705Z,102738.31
2024-01-26T14:04:29.375Z,102733.75
2024-01-26T14:06:34.434Z,102736.41
2024-01-26T14:08:36.499Z,102730.97
2024-01-26T14:10:38.176Z,102719.50
2024-01-26T14:12:39.769Z,102721.91
2024-01-26T14:14:41.516Z,102715.41
2024-01-26T14:16:43.125Z,102721.72
2024-01-26T14:18:44.903Z,102729.16
2024-01-26T14:20:47.647Z,102738.13
2024-01-26T14:22:53.221Z,102735.31
2024-01-26T14:24:55.005Z,102735.63
2024-01-26T14:26:57.825Z,102734.25
2024-01-26T14:28:59.901Z,102735.44
2024-01-26T14:31:01.512Z,102748.97
2024-01-26T14:33:03.625Z,102737.63
2024-01-26T14:35:05.621Z,102743.63
2024-01-26T14:37:07.503Z,102752.66
2024-01-26T14:39:10.077Z,102755.44
2024-01-26T14:41:12.049Z,102751.09
2024-01-26T14:43:14.174Z,102748.34
2024-01-26T14:45:16.530Z,102749.22
2024-01-26T14:47:18.397Z,102758.13
2024-01-26T14:49:20.281Z,102751.97
2024-01-26T14:51:22.270Z,102752.06
2024-01-26T14:53:24.148Z,102771.41
2024-01-26T14:55:25.789Z,102775.03
2024-01-26T14:57:28.555Z,102765.50
2024-01-26T14:59:30.258Z,102775.81
2024-01-26T15:01:31.987Z,102786.53
2024-01-26T15:03:35.911Z,102765.50
2024-01-26T15:05:37.664Z,102799.56
2024-01-26T15:07:43.129Z,102803.88
2024-01-26T15:09:47.781Z,102791.53
2024-01-26T15:11:49.972Z,102789.66
2024-01-26T15:13:51.618Z,102792.31
2024-01-26T15:15:54.948Z,102785.41
2024-01-26T15:17:56.689Z,102800.44
2024-01-26T15:20:00.467Z,102800.13
2024-01-26T15:22:03.108Z,102799.16
2024-01-26T15:24:04.917Z,102813.31
2024-01-26T15:26:06.521Z,102813.16
2024-01-26T15:28:08.205Z,102820.97
2024-01-26T15:30:12.088Z,102814.03
2024-01-26T15:32:14.881Z,102813.25
2024-01-26T15:34:16.684Z,102824.41
2024-01-26T15:36:29.175Z,102827.03
2024-01-26T15:38:30.781Z,102831.38
2024-01-26T15:40:32.708Z,102832.13
2024-01-26T15:42:34.862Z,102820.50
2024-01-26T15:44:37.629Z,102830.25
2024-01-26T15:46:39.354Z,102836.63
2024-01-26T15:48:41.835Z,102816.63
2024-01-26T15:50:43.565Z,102840.00
2024-01-26T15:52:46.872Z,102845.31
2024-01-26T15:54:49.459Z,102850.88
2024-01-26T15:56:51.054Z,102841.41
2024-01-26T15:58:54.979Z,102844.66
2024-01-26T16:00:56.790Z,102854.97
2024-01-26T16:02:58.797Z,102853.25
2024-01-26T16:05:00.758Z,102851.41
2024-01-26T16:07:02.469Z,102834.50
2024-01-26T16:09:04.294Z,102859.69
2024-01-26T16:11:06.026Z,102864.34
2024-01-26T16:13:07.646Z,102875.06
2024-01-26T16:15:10.883Z,102873.00
2024-01-26T16:17:18.089Z,102862.22
2024-01-26T16:19:19.803Z,102875.94
2024-01-26T16:21:21.653Z,102878.34
2024-01-26T16:23:23.376Z,102885.63
2024-01-26T16:25:25.470Z,102882.09
2024-01-26T16:27:27.103Z,102878.44
2024-01-26T16:29:28.766Z,102882.69
2024-01-26T16:31:33.875Z,102882.69
2024-01-26T16:33:36.410Z,102890.66
2024-01-26T16:35:38.873Z,102880.16
2024-01-26T16:37:40.521Z,102897.81
2024-01-26T16:39:42.417Z,102905.75
2024-01-26T16:41:44.243Z,102914.75
2024-01-26T16:43:45.927Z,102912.06
2024-01-26T16:45:47.665Z,102917.50
2024-01-26T16:47:49.412Z,102913.88
2024-01-26T16:49:54.824Z,102915.78
2024-01-26T16:52:01.831Z,102914.97
2024-01-26T16:54:03.848Z,102923.25
2024-01-26T16:56:05.802Z,102928.66
2024-01-26T16:58:07.430Z,102934.97
2024-01-26T17:00:10.016Z,102927.31
2024-01-26T17:02:11.616Z,102924.88
2024-01-26T17:04:13.401Z,102927.63
2024-01-26T17:06:15.180Z,102928.41
2024-01-26T17:08:16.895Z,102925.72
2024-01-26T17:10:20.536Z,102933.75
2024-01-26T17:12:24.063Z,102947.88
2024-01-26T17:14:25.966Z,102956.59
2024-01-26T17:16:27.652Z,102961.81
2024-01-26T17:18:31.074Z,102970.66
2024-01-26T17:20:32.826Z,102968.81
2024-01-26T17:22:37.013Z,102975.25
2024-01-26T17:24:41.055Z,102972.50
2024-01-26T17:26:43.270Z,102955.00
2024-01-26T17:28:45.106Z,102972.41
2024-01-26T17:30:46.692Z,102984.66
2024-01-26T17:32:48.379Z,102982.16
2024-01-26T17:34:50.070Z,102983.88
2024-01-26T17:36:51.761Z,102982.22
2024-01-26T17:38:53.505Z,102980.28
2024-01-26T17:40:55.186Z,102961.00
2024-01-26T17:42:57.192Z,102986.34
2024-01-26T17:44:58.922Z,102974.66
2024-01-26T17:47:00.590Z,102980.97
2024-01-26T17:49:02.303Z,102988.69
2024-01-26T17:51:04.187Z,102987.03
2024-01-26T17:53:05.951Z,102986.19
2024-01-26T17:55:07.825Z,102987.91
2024-01-26T17:57:09.688Z,102984.38
2024-01-26T17:59:11.434Z,102987.97
2024-01-26T18:01:13.118Z,102993.41
2024-01-26T18:03:15.029Z,102997.91
2024-01-26T18:05:20.644Z,102995.28
2024-01-26T18:07:22.807Z,103001.19
2024-01-26T18:09:24.404Z,103000.44
2024-01-26T18:11:26.046Z,103004.91
2024-01-26T18:13:27.652Z,103001.28
2024-01-26T18:15:29.457Z,103010.44
2024-01-26T18:17:31.345Z,103017.66
2024-01-26T18:19:33.774Z,103023.81
2024-01-26T18:21:35.907Z,103023.88
2024-01-26T18:23:37.660Z,103016.84
2024-01-26T18:25:39.418Z,103017.97
2024-01-26T18:27:41.263Z,103018.94
2024-01-26T18:29:42.982Z,103011.00
2024-01-26T18:31:44.741Z,103020.00
2024-01-26T18:33:46.466Z,103015.56
2024-01-26T18:35:49.127Z,103013.69
2024-01-26T18:37:50.766Z,103019.81
2024-01-26T18:39:52.439Z,103021.63
2024-01-26T18:41:54.094Z,103022.31
2024-01-26T18:43:57.913Z,103015.69
2024-01-26T18:46:01.243Z,103019.06
2024-01-26T18:48:03.164Z,103026.19
2024-01-26T18:50:05.461Z,103025.38
2024-01-26T18:52:08.262Z,103031.75
2024-01-26T18:54:09.885Z,103046.97
2024-01-26T18:56:11.739Z,103047.81
2024-01-26T18:58:13.570Z,103043.97
2024-01-26T19:00:16.022Z,103044.53
2024-01-26T19:02:17.680Z,103053.53
2024-01-26T19:04:20.531Z,103044.59
2024-01-26T19:06:22.989Z,103051.63
2024-01-26T19:08:25.119Z,103047.91
2024-01-26T19:10:26.702Z,103048.63
2024-01-26T19:12:28.589Z,103059.50
2024-01-26T19:14:31.045Z,103062.31
2024-01-26T19:16:34.289Z,103059.88
2024-01-26T19:18:36.498Z,103057.28
2024-01-26T19:20:38.252Z,103055.63
2024-01-26T19:22:39.853Z,103065.47
2024-01-26T19:24:41.628Z,103065.41
2024-01-26T19:26:43.666Z,103068.06
2024-01-26T19:28:46.142Z,103084.75
2024-01-26T19:30:47.800Z,103080.22
2024-01-26T19:32:52.166Z,103072.97
2024-01-26T19:34:53.809Z,103068.34
2024-01-26T19:36:55.786Z,103077.22
2024-01-26T19:38:57.857Z,103061.47
2024-01-26T19:41:00.068Z,103076.28
2024-01-26T19:43:01.788Z,103080.72
2024-01-26T19:45:03.719Z,103084.25
2024-01-26T19:47:05.385Z,103084.41
2024-01-26T19:49:07.535Z,103086.13
2024-01-26T19:51:09.241Z,103089.66
2024-01-26T19:53:10.890Z,103084.41
2024-01-26T19:55:12.729Z,103087.69
2024-01-26T19:57:14.725Z,103086.13
2024-01-26T19:59:16.964Z,103089.50
2024-01-26T20:01:18.636Z,103087.94
2024-01-26T20:03:21.198Z,103099.22
2024-01-26T20:05:22.892Z,103094.50
2024-01-26T20:07:26.658Z,103093.69
2024-01-26T20:09:28.818Z,103091.19
2024-01-26T20:11:30.708Z,103091.88
2024-01-26T20:13:32.338Z,103092.84
2024-01-26T20:15:34.269Z,103087.53
2024-01-26T20:17:36.316Z,103089.44
2024-01-26T20:19:39.596Z,103090.31
2024-01-26T20:21:41.330Z,103103.69
2024-01-26T20:23:44.403Z,103094.00
2024-01-26T20:25:46.086Z,103097.53
2024-01-26T20:27:48.266Z,103077.69
2024-01-26T20:29:50.116Z,103093.53
2024-01-26T20:31:52.927Z,103087.38
2024-01-26T20:33:54.932Z,103094.59
2024-01-26T20:35:56.692Z,103101.78
2024-01-26T20:37:58.484Z,103113.34
2024-01-26T20:40:00.189Z,103110.69
2024-01-26T20:42:05.076Z,103110.06
2024-01-26T20:44:06.787Z,103098.47
2024-01-26T20:46:09.250Z,103104.63
2024-01-26T20:48:11.347Z,103115.25
2024-01-26T20:50:13.165Z,103116.63
2024-01-26T20:52:14.962Z,103111.13
2024-01-26T20:54:16.924Z,103126.13
2024-01-26T20:56:18.492Z,103121.84
2024-01-26T20:58:20.775Z,103112.59
2024-01-26T21:00:23.337Z,103125.16
2024-01-26T21:02:25.277Z,103117.38
2024-01-26T21:04:28.565Z,103118.66
2024-01-26T21:06:30.397Z,103118.13
2024-01-26T21:08:32.389Z,103120.19
2024-01-26T21:10:33.893Z,103116.69
2024-01-26T21:12:35.863Z,103121.19
2024-01-26T21:14:37.419Z,103120.25
2024-01-26T21:16:39.716Z,103130.88
2024-01-26T21:18:41.339Z,103130.81
2024-01-26T21:20:43.252Z,103133.56
2024-01-26T21:22:45.394Z,103140.63
2024-01-26T21:24:46.887Z,103144.31
2024-01-26T21:26:48.426Z,103152.34
2024-01-26T21:28:50.214Z,103142.69
2024-01-26T21:30:51.726Z,103142.72
2024-01-26T21:32:53.434Z,103148.16
2024-01-26T21:34:56.800Z,103166.19
2024-01-26T21:36:58.892Z,103159.94
2024-01-26T21:39:00.621Z,103156.38
2024-01-26T21:41:02.114Z,103143.81
2024-01-26T21:43:06.506Z,103142.88
2024-01-26T21:45:08.463Z,103145.41
2024-01-26T21:47:10.691Z,103149.81
2024-01-26T21:49:14.830Z,103148.03
2024-01-26T21:51:19.249Z,103147.09
2024-01-26T21:53:21.340Z,103149.81
2024-01-26T21:55:24.218Z,103144.47
2024-01-26T21:57:25.999Z,103144.53
2024-01-26T21:59:27.729Z,103141.06
2024-01-26T22:01:30.291Z,103148.31
2024-01-26T22:03:32.063Z,103142.16
2024-01-26T22:05:34.326Z,103143.09
2024-01-26T22:07:36.074Z,103146.63
2024-01-26T22:09:37.708Z,103145.63
2024-01-26T22:11:39.425Z,103158.06
2024-01-26T22:13:41.012Z,103156.13
2024-01-26T22:15:42.604Z,103148.94
2024-01-26T22:17:44.224Z,103153.28
2024-01-26T22:19:46.102Z,103147.94
2024-01-26T22:21:49.773Z,103155.03
2024-01-26T22:23:51.257Z,103162.19
2024-01-26T22:25:52.726Z,103157.84
2024-01-26T22:27:54.647Z,103152.56
2024-01-26T22:29:56.869Z,103144.63
2024-01-26T22:31:58.860Z,103138.47
2024-01-26T22:34:00.596Z,103140.34
2024-01-26T22:36:02.766Z,103144.78
2024-01-26T22:38:04.489Z,103152.66
2024-01-26T22:40:06.329Z,103143.69
2024-01-26T22:42:07.933Z,103146.22
2024-01-26T22:44:09.671Z,103139.91
2024-01-26T22:46:11.182Z,103138.91
2024-01-26T22:48:12.997Z,103140.72
2024-01-26T22:50:14.970Z,103138.97
2024-01-26T22:52:16.437Z,103141.66
2024-01-26T22:54:17.878Z,103139.06
2024-01-26T22:56:19.402Z,103146.22
2024-01-26T22:58:21.133Z,103142.72
2024-01-26T23:00:26.168Z,103139.28
2024-01-26T23:02:28.856Z,103139.34
2024-01-26T23:04:30.405Z,103150.13
2024-01-26T23:06:31.979Z,103145.50
2024-01-26T23:08:33.614Z,103140.06
2024-01-26T23:10:35.219Z,103132.84
2024-01-26T23:12:36.830Z,103132.75
2024-01-26T23:16:44.687Z,103137.97
2024-01-26T23:18:46.408Z,103140.63
2024-01-26T23:20:48.040Z,103134.44